sensor_id;sensor_type;location;lat;lon;timestamp;P1;durP1;ratioP1;P2;durP2;ratioP2
67867;SDS011;54672;46.096;14.470;2024-01-06T00:02:03;39.58;;;17.30;;
67867;SDS011;54672;46.096;14.470;2024-01-06T00:04:29;39.40;;;16.80;;
67867;SDS011;54672;46.096;14.470;2024-01-06T00:06:54;42.15;;;19.27;;
67867;SDS011;54672;46.096;14.470;2024-01-06T00:09:20;40.40;;;16.10;;
67867;SDS011;54672;46.096;14.470;2024-01-06T00:11:45;45.60;;;15.65;;
67867;SDS011;54672;46.096;14.470;2024-01-06T00:14:11;39.30;;;17.67;;
67867;SDS011;54672;46.096;14.470;2024-01-06T00:16:36;44.25;;;18.85;;
67867;SDS011;54672;46.096;14.470;2024-01-06T00:19:02;45.88;;;20.55;;
67867;SDS011;54672;46.096;14.470;2024-01-06T00:21:27;48.45;;;21.05;;
67867;SDS011;54672;46.096;14.470;2024-01-06T00:23:53;44.45;;;19.85;;
67867;SDS011;54672;46.096;14.470;2024-01-06T00:26:20;48.60;;;21.98;;
67867;SDS011;54672;46.096;14.470;2024-01-06T00:28:46;47.67;;;21.08;;
67867;SDS011;54672;46.096;14.470;2024-01-06T00:31:14;42.92;;;22.20;;
67867;SDS011;54672;46.096;14.470;2024-01-06T00:33:41;40.42;;;19.30;;
67867;SDS011;54672;46.096;14.470;2024-01-06T00:36:07;45.67;;;21.27;;
67867;SDS011;54672;46.096;14.470;2024-01-06T00:38:33;45.80;;;20.55;;
67867;SDS011;54672;46.096;14.470;2024-01-06T00:40:58;48.92;;;21.27;;
67867;SDS011;54672;46.096;14.470;2024-01-06T00:43:23;39.90;;;19.67;;
67867;SDS011;54672;46.096;14.470;2024-01-06T00:45:49;37.08;;;18.52;;
67867;SDS011;54672;46.096;14.470;2024-01-06T00:48:14;38.45;;;19.02;;
67867;SDS011;54672;46.096;14.470;2024-01-06T00:50:40;43.70;;;20.13;;
67867;SDS011;54672;46.096;14.470;2024-01-06T00:53:05;46.22;;;18.73;;
67867;SDS011;54672;46.096;14.470;2024-01-06T00:55:31;43.00;;;20.25;;
67867;SDS011;54672;46.096;14.470;2024-01-06T00:57:56;37.42;;;16.60;;
67867;SDS011;54672;46.096;14.470;2024-01-06T01:00:21;41.28;;;19.35;;
67867;SDS011;54672;46.096;14.470;2024-01-06T01:02:47;42.00;;;20.00;;
67867;SDS011;54672;46.096;14.470;2024-01-06T01:05:13;40.08;;;20.20;;
67867;SDS011;54672;46.096;14.470;2024-01-06T01:07:38;31.33;;;14.65;;
67867;SDS011;54672;46.096;14.470;2024-01-06T01:10:04;27.10;;;13.45;;
67867;SDS011;54672;46.096;14.470;2024-01-06T01:12:30;27.75;;;13.52;;
67867;SDS011;54672;46.096;14.470;2024-01-06T01:14:56;35.10;;;16.35;;
67867;SDS011;54672;46.096;14.470;2024-01-06T01:17:22;43.33;;;20.45;;
67867;SDS011;54672;46.096;14.470;2024-01-06T01:19:47;37.08;;;19.13;;
67867;SDS011;54672;46.096;14.470;2024-01-06T01:22:12;40.65;;;19.52;;
67867;SDS011;54672;46.096;14.470;2024-01-06T01:24:38;32.72;;;15.18;;
67867;SDS011;54672;46.096;14.470;2024-01-06T01:27:04;43.15;;;18.80;;
67867;SDS011;54672;46.096;14.470;2024-01-06T01:29:30;40.35;;;19.65;;
67867;SDS011;54672;46.096;14.470;2024-01-06T01:31:55;42.72;;;20.80;;
67867;SDS011;54672;46.096;14.470;2024-01-06T01:34:20;41.97;;;19.08;;
67867;SDS011;54672;46.096;14.470;2024-01-06T01:36:46;44.88;;;20.20;;
67867;SDS011;54672;46.096;14.470;2024-01-06T01:39:11;37.30;;;18.73;;
67867;SDS011;54672;46.096;14.470;2024-01-06T01:41:37;43.00;;;21.15;;
67867;SDS011;54672;46.096;14.470;2024-01-06T01:44:02;43.22;;;19.65;;
67867;SDS011;54672;46.096;14.470;2024-01-06T01:46:29;36.60;;;18.48;;
67867;SDS011;54672;46.096;14.470;2024-01-06T01:48:55;40.92;;;19.85;;
67867;SDS011;54672;46.096;14.470;2024-01-06T01:51:22;45.50;;;19.35;;
67867;SDS011;54672;46.096;14.470;2024-01-06T01:53:49;45.47;;;21.23;;
67867;SDS011;54672;46.096;14.470;2024-01-06T01:56:15;41.92;;;18.20;;
67867;SDS011;54672;46.096;14.470;2024-01-06T01:58:41;43.03;;;20.80;;
67867;SDS011;54672;46.096;14.470;2024-01-06T02:01:07;43.38;;;20.75;;
67867;SDS011;54672;46.096;14.470;2024-01-06T02:03:33;43.38;;;22.02;;
67867;SDS011;54672;46.096;14.470;2024-01-06T02:06:00;42.58;;;20.75;;
67867;SDS011;54672;46.096;14.470;2024-01-06T02:08:25;39.92;;;18.75;;
67867;SDS011;54672;46.096;14.470;2024-01-06T02:10:52;41.97;;;21.08;;
67867;SDS011;54672;46.096;14.470;2024-01-06T02:13:21;43.35;;;20.35;;
67867;SDS011;54672;46.096;14.470;2024-01-06T02:15:47;34.83;;;18.50;;
67867;SDS011;54672;46.096;14.470;2024-01-06T02:18:13;38.58;;;19.27;;
67867;SDS011;54672;46.096;14.470;2024-01-06T02:20:38;39.88;;;19.65;;
67867;SDS011;54672;46.096;14.470;2024-01-06T02:23:09;42.40;;;19.52;;
67867;SDS011;54672;46.096;14.470;2024-01-06T02:25:34;36.53;;;18.77;;
67867;SDS011;54672;46.096;14.470;2024-01-06T02:28:00;43.67;;;20.30;;
67867;SDS011;54672;46.096;14.470;2024-01-06T02:30:26;41.92;;;20.25;;
67867;SDS011;54672;46.096;14.470;2024-01-06T02:32:51;38.72;;;19.20;;
67867;SDS011;54672;46.096;14.470;2024-01-06T02:35:17;38.97;;;17.90;;
67867;SDS011;54672;46.096;14.470;2024-01-06T02:37:42;42.90;;;20.25;;
67867;SDS011;54672;46.096;14.470;2024-01-06T02:40:08;40.72;;;20.20;;
67867;SDS011;54672;46.096;14.470;2024-01-06T02:42:34;48.65;;;20.58;;
67867;SDS011;54672;46.096;14.470;2024-01-06T02:44:59;45.90;;;19.70;;
67867;SDS011;54672;46.096;14.470;2024-01-06T02:47:25;42.85;;;19.33;;
67867;SDS011;54672;46.096;14.470;2024-01-06T02:49:50;41.25;;;19.30;;
67867;SDS011;54672;46.096;14.470;2024-01-06T02:52:16;40.60;;;19.85;;
67867;SDS011;54672;46.096;14.470;2024-01-06T02:54:41;39.47;;;20.30;;
67867;SDS011;54672;46.096;14.470;2024-01-06T02:57:06;40.88;;;18.13;;
67867;SDS011;54672;46.096;14.470;2024-01-06T02:59:32;35.80;;;18.38;;
67867;SDS011;54672;46.096;14.470;2024-01-06T03:01:59;38.75;;;17.55;;
67867;SDS011;54672;46.096;14.470;2024-01-06T03:04:26;35.28;;;17.08;;
67867;SDS011;54672;46.096;14.470;2024-01-06T03:06:51;37.60;;;16.90;;
67867;SDS011;54672;46.096;14.470;2024-01-06T03:09:18;37.15;;;18.02;;
67867;SDS011;54672;46.096;14.470;2024-01-06T03:11:44;34.08;;;17.33;;
67867;SDS011;54672;46.096;14.470;2024-01-06T03:14:10;35.15;;;16.63;;
67867;SDS011;54672;46.096;14.470;2024-01-06T03:16:35;36.92;;;17.77;;
67867;SDS011;54672;46.096;14.470;2024-01-06T03:19:01;34.67;;;17.02;;
67867;SDS011;54672;46.096;14.470;2024-01-06T03:21:26;37.92;;;17.95;;
67867;SDS011;54672;46.096;14.470;2024-01-06T03:23:52;34.90;;;16.98;;
67867;SDS011;54672;46.096;14.470;2024-01-06T03:26:17;30.20;;;15.88;;
67867;SDS011;54672;46.096;14.470;2024-01-06T03:28:43;37.58;;;17.75;;
67867;SDS011;54672;46.096;14.470;2024-01-06T03:31:08;34.97;;;18.17;;
67867;SDS011;54672;46.096;14.470;2024-01-06T03:33:34;36.22;;;18.58;;
67867;SDS011;54672;46.096;14.470;2024-01-06T03:36:03;37.67;;;18.45;;
67867;SDS011;54672;46.096;14.470;2024-01-06T03:38:32;42.10;;;20.27;;
67867;SDS011;54672;46.096;14.470;2024-01-06T03:40:57;39.92;;;18.55;;
67867;SDS011;54672;46.096;14.470;2024-01-06T03:43:23;37.63;;;19.00;;
67867;SDS011;54672;46.096;14.470;2024-01-06T03:45:48;35.08;;;18.00;;
67867;SDS011;54672;46.096;14.470;2024-01-06T03:48:14;36.75;;;18.17;;
67867;SDS011;54672;46.096;14.470;2024-01-06T03:50:39;39.22;;;18.33;;
67867;SDS011;54672;46.096;14.470;2024-01-06T03:53:04;34.83;;;16.00;;
67867;SDS011;54672;46.096;14.470;2024-01-06T03:55:30;40.15;;;18.00;;
67867;SDS011;54672;46.096;14.470;2024-01-06T03:57:55;41.78;;;18.65;;
67867;SDS011;54672;46.096;14.470;2024-01-06T04:00:21;41.35;;;20.73;;
67867;SDS011;54672;46.096;14.470;2024-01-06T04:02:46;39.45;;;19.02;;
67867;SDS011;54672;46.096;14.470;2024-01-06T04:05:11;32.83;;;16.25;;
67867;SDS011;54672;46.096;14.470;2024-01-06T04:07:37;35.70;;;17.15;;
67867;SDS011;54672;46.096;14.470;2024-01-06T04:10:03;35.88;;;18.13;;
67867;SDS011;54672;46.096;14.470;2024-01-06T04:12:29;36.22;;;17.85;;
67867;SDS011;54672;46.096;14.470;2024-01-06T04:14:54;41.90;;;19.88;;
67867;SDS011;54672;46.096;14.470;2024-01-06T04:17:19;46.38;;;22.10;;
67867;SDS011;54672;46.096;14.470;2024-01-06T04:19:45;36.92;;;18.23;;
67867;SDS011;54672;46.096;14.470;2024-01-06T04:22:10;34.75;;;18.38;;
67867;SDS011;54672;46.096;14.470;2024-01-06T04:24:36;33.63;;;17.58;;
67867;SDS011;54672;46.096;14.470;2024-01-06T04:27:03;35.63;;;18.40;;
67867;SDS011;54672;46.096;14.470;2024-01-06T04:29:29;37.63;;;18.17;;
67867;SDS011;54672;46.096;14.470;2024-01-06T04:31:55;35.25;;;17.45;;
67867;SDS011;54672;46.096;14.470;2024-01-06T04:34:20;31.50;;;15.75;;
67867;SDS011;54672;46.096;14.470;2024-01-06T04:36:46;33.33;;;16.38;;
67867;SDS011;54672;46.096;14.470;2024-01-06T04:39:11;35.47;;;16.45;;
67867;SDS011;54672;46.096;14.470;2024-01-06T04:41:38;33.83;;;17.25;;
67867;SDS011;54672;46.096;14.470;2024-01-06T04:44:05;35.85;;;17.23;;
67867;SDS011;54672;46.096;14.470;2024-01-06T04:46:30;33.60;;;17.13;;
67867;SDS011;54672;46.096;14.470;2024-01-06T04:48:56;37.15;;;18.10;;
67867;SDS011;54672;46.096;14.470;2024-01-06T04:51:21;38.80;;;18.77;;
67867;SDS011;54672;46.096;14.470;2024-01-06T04:53:47;32.83;;;16.60;;
67867;SDS011;54672;46.096;14.470;2024-01-06T04:56:12;33.65;;;17.02;;
67867;SDS011;54672;46.096;14.470;2024-01-06T04:58:38;37.97;;;18.55;;
67867;SDS011;54672;46.096;14.470;2024-01-06T05:01:04;35.05;;;18.23;;
67867;SDS011;54672;46.096;14.470;2024-01-06T05:03:29;38.60;;;19.20;;
67867;SDS011;54672;46.096;14.470;2024-01-06T05:05:55;37.53;;;17.77;;
67867;SDS011;54672;46.096;14.470;2024-01-06T05:08:20;35.90;;;18.30;;
67867;SDS011;54672;46.096;14.470;2024-01-06T05:10:47;33.95;;;16.83;;
67867;SDS011;54672;46.096;14.470;2024-01-06T05:13:13;37.28;;;18.02;;
67867;SDS011;54672;46.096;14.470;2024-01-06T05:15:39;34.72;;;18.92;;
67867;SDS011;54672;46.096;14.470;2024-01-06T05:18:04;39.35;;;19.02;;
67867;SDS011;54672;46.096;14.470;2024-01-06T05:20:30;41.40;;;19.83;;
67867;SDS011;54672;46.096;14.470;2024-01-06T05:22:55;41.10;;;18.58;;
67867;SDS011;54672;46.096;14.470;2024-01-06T05:25:21;40.85;;;19.40;;
67867;SDS011;54672;46.096;14.470;2024-01-06T05:27:46;36.58;;;18.58;;
67867;SDS011;54672;46.096;14.470;2024-01-06T05:30:12;38.38;;;18.92;;
67867;SDS011;54672;46.096;14.470;2024-01-06T05:32:37;34.28;;;18.20;;
67867;SDS011;54672;46.096;14.470;2024-01-06T05:35:03;36.13;;;17.95;;
67867;SDS011;54672;46.096;14.470;2024-01-06T05:37:29;33.03;;;17.45;;
67867;SDS011;54672;46.096;14.470;2024-01-06T05:39:56;33.80;;;15.88;;
67867;SDS011;54672;46.096;14.470;2024-01-06T05:42:26;34.80;;;16.50;;
67867;SDS011;54672;46.096;14.470;2024-01-06T05:44:51;33.95;;;16.83;;
67867;SDS011;54672;46.096;14.470;2024-01-06T05:47:17;31.83;;;16.35;;
67867;SDS011;54672;46.096;14.470;2024-01-06T05:49:42;33.20;;;16.92;;
67867;SDS011;54672;46.096;14.470;2024-01-06T05:52:10;30.00;;;16.25;;
67867;SDS011;54672;46.096;14.470;2024-01-06T05:54:36;32.63;;;16.40;;
67867;SDS011;54672;46.096;14.470;2024-01-06T05:57:01;31.80;;;16.55;;
67867;SDS011;54672;46.096;14.470;2024-01-06T05:59:27;33.30;;;16.85;;
67867;SDS011;54672;46.096;14.470;2024-01-06T06:01:52;31.80;;;16.85;;
67867;SDS011;54672;46.096;14.470;2024-01-06T06:04:18;31.40;;;16.13;;
67867;SDS011;54672;46.096;14.470;2024-01-06T06:06:44;27.25;;;13.88;;
67867;SDS011;54672;46.096;14.470;2024-01-06T06:09:09;25.88;;;14.07;;
67867;SDS011;54672;46.096;14.470;2024-01-06T06:11:35;29.80;;;15.65;;
67867;SDS011;54672;46.096;14.470;2024-01-06T06:14:01;26.75;;;14.70;;
67867;SDS011;54672;46.096;14.470;2024-01-06T06:16:28;29.42;;;15.57;;
67867;SDS011;54672;46.096;14.470;2024-01-06T06:18:53;30.25;;;15.18;;
67867;SDS011;54672;46.096;14.470;2024-01-06T06:21:20;29.80;;;15.50;;
67867;SDS011;54672;46.096;14.470;2024-01-06T06:23:45;27.13;;;15.02;;
67867;SDS011;54672;46.096;14.470;2024-01-06T06:26:10;27.83;;;14.65;;
67867;SDS011;54672;46.096;14.470;2024-01-06T06:28:37;25.58;;;15.18;;
67867;SDS011;54672;46.096;14.470;2024-01-06T06:31:02;26.83;;;14.68;;
67867;SDS011;54672;46.096;14.470;2024-01-06T06:33:28;23.95;;;14.68;;
67867;SDS011;54672;46.096;14.470;2024-01-06T06:35:54;25.90;;;12.93;;
67867;SDS011;54672;46.096;14.470;2024-01-06T06:38:19;26.40;;;14.18;;
67867;SDS011;54672;46.096;14.470;2024-01-06T06:40:46;25.73;;;14.30;;
67867;SDS011;54672;46.096;14.470;2024-01-06T06:43:12;25.02;;;15.30;;
67867;SDS011;54672;46.096;14.470;2024-01-06T06:45:38;27.85;;;12.55;;
67867;SDS011;54672;46.096;14.470;2024-01-06T06:48:04;31.75;;;16.35;;
67867;SDS011;54672;46.096;14.470;2024-01-06T06:50:29;33.53;;;16.83;;
67867;SDS011;54672;46.096;14.470;2024-01-06T06:52:55;38.78;;;18.35;;
67867;SDS011;54672;46.096;14.470;2024-01-06T06:55:20;39.38;;;19.15;;
67867;SDS011;54672;46.096;14.470;2024-01-06T06:57:46;33.30;;;17.60;;
67867;SDS011;54672;46.096;14.470;2024-01-06T07:00:11;39.33;;;18.33;;
67867;SDS011;54672;46.096;14.470;2024-01-06T07:02:38;35.00;;;17.30;;
67867;SDS011;54672;46.096;14.470;2024-01-06T07:05:03;31.80;;;17.63;;
67867;SDS011;54672;46.096;14.470;2024-01-06T07:07:32;33.10;;;18.02;;
67867;SDS011;54672;46.096;14.470;2024-01-06T07:09:58;34.58;;;17.05;;
67867;SDS011;54672;46.096;14.470;2024-01-06T07:12:23;32.22;;;16.77;;
67867;SDS011;54672;46.096;14.470;2024-01-06T07:14:48;29.70;;;15.48;;
67867;SDS011;54672;46.096;14.470;2024-01-06T07:17:14;32.67;;;16.02;;
67867;SDS011;54672;46.096;14.470;2024-01-06T07:19:39;37.50;;;16.55;;
67867;SDS011;54672;46.096;14.470;2024-01-06T07:22:05;37.33;;;16.83;;
67867;SDS011;54672;46.096;14.470;2024-01-06T07:24:30;34.40;;;16.60;;
67867;SDS011;54672;46.096;14.470;2024-01-06T07:26:55;34.85;;;18.33;;
67867;SDS011;54672;46.096;14.470;2024-01-06T07:29:21;29.83;;;15.32;;
67867;SDS011;54672;46.096;14.470;2024-01-06T07:31:46;26.58;;;13.93;;
67867;SDS011;54672;46.096;14.470;2024-01-06T07:34:12;23.80;;;12.70;;
67867;SDS011;54672;46.096;14.470;2024-01-06T07:36:38;33.28;;;17.67;;
67867;SDS011;54672;46.096;14.470;2024-01-06T07:39:04;30.52;;;15.25;;
67867;SDS011;54672;46.096;14.470;2024-01-06T07:41:31;34.22;;;16.23;;
67867;SDS011;54672;46.096;14.470;2024-01-06T07:43:57;26.27;;;13.88;;
67867;SDS011;54672;46.096;14.470;2024-01-06T07:46:23;29.58;;;14.55;;
67867;SDS011;54672;46.096;14.470;2024-01-06T07:48:48;23.48;;;13.57;;
67867;SDS011;54672;46.096;14.470;2024-01-06T07:51:14;24.50;;;12.88;;
67867;SDS011;54672;46.096;14.470;2024-01-06T07:53:39;27.65;;;13.10;;
67867;SDS011;54672;46.096;14.470;2024-01-06T07:56:05;26.65;;;13.13;;
67867;SDS011;54672;46.096;14.470;2024-01-06T07:58:31;21.52;;;11.55;;
67867;SDS011;54672;46.096;14.470;2024-01-06T08:00:57;26.85;;;12.13;;
67867;SDS011;54672;46.096;14.470;2024-01-06T08:03:23;18.08;;;11.55;;
67867;SDS011;54672;46.096;14.470;2024-01-06T08:05:50;23.15;;;12.90;;
67867;SDS011;54672;46.096;14.470;2024-01-06T08:08:24;22.00;;;12.15;;
67867;SDS011;54672;46.096;14.470;2024-01-06T08:10:49;23.15;;;12.73;;
67867;SDS011;54672;46.096;14.470;2024-01-06T08:13:14;23.95;;;12.98;;
67867;SDS011;54672;46.096;14.470;2024-01-06T08:15:40;23.70;;;13.43;;
67867;SDS011;54672;46.096;14.470;2024-01-06T08:18:05;26.15;;;15.02;;
67867;SDS011;54672;46.096;14.470;2024-01-06T08:20:31;31.15;;;16.48;;
67867;SDS011;54672;46.096;14.470;2024-01-06T08:22:56;27.85;;;15.05;;
67867;SDS011;54672;46.096;14.470;2024-01-06T08:25:22;22.70;;;13.43;;
67867;SDS011;54672;46.096;14.470;2024-01-06T08:27:47;19.42;;;11.10;;
67867;SDS011;54672;46.096;14.470;2024-01-06T08:30:13;18.58;;;9.70;;
67867;SDS011;54672;46.096;14.470;2024-01-06T08:32:38;16.05;;;9.20;;
67867;SDS011;54672;46.096;14.470;2024-01-06T08:35:04;16.92;;;8.98;;
67867;SDS011;54672;46.096;14.470;2024-01-06T08:37:30;14.18;;;8.82;;
67867;SDS011;54672;46.096;14.470;2024-01-06T08:39:55;14.95;;;8.52;;
67867;SDS011;54672;46.096;14.470;2024-01-06T08:42:21;15.35;;;8.90;;
67867;SDS011;54672;46.096;14.470;2024-01-06T08:44:47;15.65;;;8.65;;
67867;SDS011;54672;46.096;14.470;2024-01-06T08:47:12;12.07;;;7.60;;
67867;SDS011;54672;46.096;14.470;2024-01-06T08:49:37;14.45;;;7.75;;
67867;SDS011;54672;46.096;14.470;2024-01-06T08:52:03;14.40;;;8.25;;
67867;SDS011;54672;46.096;14.470;2024-01-06T08:54:30;12.70;;;7.35;;
67867;SDS011;54672;46.096;14.470;2024-01-06T08:56:56;15.05;;;8.15;;
67867;SDS011;54672;46.096;14.470;2024-01-06T08:59:22;20.88;;;12.25;;
67867;SDS011;54672;46.096;14.470;2024-01-06T09:01:47;31.15;;;16.38;;
67867;SDS011;54672;46.096;14.470;2024-01-06T09:04:12;30.10;;;16.13;;
67867;SDS011;54672;46.096;14.470;2024-01-06T09:06:38;32.60;;;17.40;;
67867;SDS011;54672;46.096;14.470;2024-01-06T09:09:04;39.55;;;20.38;;
67867;SDS011;54672;46.096;14.470;2024-01-06T09:11:30;36.83;;;18.33;;
67867;SDS011;54672;46.096;14.470;2024-01-06T09:13:55;36.05;;;18.48;;
67867;SDS011;54672;46.096;14.470;2024-01-06T09:16:21;33.17;;;17.15;;
67867;SDS011;54672;46.096;14.470;2024-01-06T09:18:47;38.42;;;19.25;;
67867;SDS011;54672;46.096;14.470;2024-01-06T09:21:13;43.30;;;22.67;;
67867;SDS011;54672;46.096;14.470;2024-01-06T09:23:38;33.95;;;17.70;;
67867;SDS011;54672;46.096;14.470;2024-01-06T09:26:03;45.00;;;23.23;;
67867;SDS011;54672;46.096;14.470;2024-01-06T09:28:29;48.17;;;25.05;;
67867;SDS011;54672;46.096;14.470;2024-01-06T09:30:54;41.05;;;22.02;;
67867;SDS011;54672;46.096;14.470;2024-01-06T09:33:21;39.00;;;21.65;;
67867;SDS011;54672;46.096;14.470;2024-01-06T09:35:47;39.88;;;21.25;;
67867;SDS011;54672;46.096;14.470;2024-01-06T09:38:12;34.75;;;19.95;;
67867;SDS011;54672;46.096;14.470;2024-01-06T09:40:41;42.45;;;20.52;;
67867;SDS011;54672;46.096;14.470;2024-01-06T09:45:36;46.92;;;22.13;;
67867;SDS011;54672;46.096;14.470;2024-01-06T09:48:04;36.80;;;18.45;;
67867;SDS011;54672;46.096;14.470;2024-01-06T09:50:35;35.33;;;18.70;;
67867;SDS011;54672;46.096;14.470;2024-01-06T09:53:01;34.85;;;18.15;;
67867;SDS011;54672;46.096;14.470;2024-01-06T09:55:30;32.40;;;16.85;;
67867;SDS011;54672;46.096;14.470;2024-01-06T09:57:56;39.28;;;19.40;;
67867;SDS011;54672;46.096;14.470;2024-01-06T10:00:22;38.15;;;18.95;;
67867;SDS011;54672;46.096;14.470;2024-01-06T10:02:47;37.40;;;17.95;;
67867;SDS011;54672;46.096;14.470;2024-01-06T10:05:15;50.35;;;26.30;;
67867;SDS011;54672;46.096;14.470;2024-01-06T10:07:41;50.47;;;26.17;;
67867;SDS011;54672;46.096;14.470;2024-01-06T10:10:10;42.75;;;20.02;;
67867;SDS011;54672;46.096;14.470;2024-01-06T10:12:42;32.13;;;19.08;;
67867;SDS011;54672;46.096;14.470;2024-01-06T10:15:09;34.38;;;16.00;;
67867;SDS011;54672;46.096;14.470;2024-01-06T10:17:39;24.00;;;13.35;;
67867;SDS011;54672;46.096;14.470;2024-01-06T10:20:09;26.48;;;13.07;;
67867;SDS011;54672;46.096;14.470;2024-01-06T10:22:36;14.20;;;8.82;;
67867;SDS011;54672;46.096;14.470;2024-01-06T10:25:03;28.50;;;14.10;;
67867;SDS011;54672;46.096;14.470;2024-01-06T10:27:33;28.42;;;15.57;;
67867;SDS011;54672;46.096;14.470;2024-01-06T10:30:00;21.70;;;12.80;;
67867;SDS011;54672;46.096;14.470;2024-01-06T10:32:25;18.58;;;10.00;;
67867;SDS011;54672;46.096;14.470;2024-01-06T10:34:54;24.60;;;12.90;;
67867;SDS011;54672;46.096;14.470;2024-01-06T10:37:20;19.13;;;10.48;;
67867;SDS011;54672;46.096;14.470;2024-01-06T10:39:45;8.20;;;5.13;;
67867;SDS011;54672;46.096;14.470;2024-01-06T10:42:11;15.75;;;8.07;;
67867;SDS011;54672;46.096;14.470;2024-01-06T10:44:39;13.57;;;7.90;;
67867;SDS011;54672;46.096;14.470;2024-01-06T10:47:06;12.00;;;6.72;;
67867;SDS011;54672;46.096;14.470;2024-01-06T10:49:31;12.02;;;5.57;;
67867;SDS011;54672;46.096;14.470;2024-01-06T10:51:57;10.75;;;5.55;;
67867;SDS011;54672;46.096;14.470;2024-01-06T10:54:24;7.97;;;4.20;;
67867;SDS011;54672;46.096;14.470;2024-01-06T10:56:49;10.98;;;5.13;;
67867;SDS011;54672;46.096;14.470;2024-01-06T10:59:17;12.07;;;5.70;;
67867;SDS011;54672;46.096;14.470;2024-01-06T11:01:44;12.80;;;6.65;;
67867;SDS011;54672;46.096;14.470;2024-01-06T11:04:11;10.40;;;5.80;;
67867;SDS011;54672;46.096;14.470;2024-01-06T11:06:36;7.40;;;3.50;;
67867;SDS011;54672;46.096;14.470;2024-01-06T11:09:11;8.95;;;4.72;;
67867;SDS011;54672;46.096;14.470;2024-01-06T11:11:41;8.38;;;3.95;;
67867;SDS011;54672;46.096;14.470;2024-01-06T11:14:23;7.45;;;3.47;;
67867;SDS011;54672;46.096;14.470;2024-01-06T11:16:50;4.90;;;3.17;;
67867;SDS011;54672;46.096;14.470;2024-01-06T11:20:01;4.97;;;2.88;;
67867;SDS011;54672;46.096;14.470;2024-01-06T11:24:49;8.55;;;4.00;;
67867;SDS011;54672;46.096;14.470;2024-01-06T11:27:28;9.02;;;4.68;;
67867;SDS011;54672;46.096;14.470;2024-01-06T11:29:59;10.23;;;5.03;;
67867;SDS011;54672;46.096;14.470;2024-01-06T11:34:55;7.72;;;4.18;;
67867;SDS011;54672;46.096;14.470;2024-01-06T11:40:26;8.88;;;4.68;;
67867;SDS011;54672;46.096;14.470;2024-01-06T11:43:06;8.57;;;4.50;;
67867;SDS011;54672;46.096;14.470;2024-01-06T11:45:33;9.57;;;4.78;;
67867;SDS011;54672;46.096;14.470;2024-01-06T11:48:00;7.65;;;4.72;;
67867;SDS011;54672;46.096;14.470;2024-01-06T11:50:28;7.88;;;4.15;;
67867;SDS011;54672;46.096;14.470;2024-01-06T11:52:55;9.05;;;4.47;;
67867;SDS011;54672;46.096;14.470;2024-01-06T11:55:21;10.27;;;5.03;;
67867;SDS011;54672;46.096;14.470;2024-01-06T11:57:47;11.50;;;5.45;;
67867;SDS011;54672;46.096;14.470;2024-01-06T12:00:15;8.90;;;4.65;;
67867;SDS011;54672;46.096;14.470;2024-01-06T12:02:41;9.70;;;4.93;;
67867;SDS011;54672;46.096;14.470;2024-01-06T12:05:14;8.15;;;4.55;;
67867;SDS011;54672;46.096;14.470;2024-01-06T12:07:43;10.02;;;5.00;;
67867;SDS011;54672;46.096;14.470;2024-01-06T12:10:19;8.32;;;4.75;;
67867;SDS011;54672;46.096;14.470;2024-01-06T12:12:56;8.60;;;4.93;;
67867;SDS011;54672;46.096;14.470;2024-01-06T12:15:27;7.70;;;4.63;;
67867;SDS011;54672;46.096;14.470;2024-01-06T12:17:54;8.20;;;4.82;;
67867;SDS011;54672;46.096;14.470;2024-01-06T12:20:19;7.15;;;4.22;;
67867;SDS011;54672;46.096;14.470;2024-01-06T12:22:46;7.90;;;3.72;;
67867;SDS011;54672;46.096;14.470;2024-01-06T12:25:12;7.53;;;4.22;;
67867;SDS011;54672;46.096;14.470;2024-01-06T12:27:43;7.50;;;4.43;;
67867;SDS011;54672;46.096;14.470;2024-01-06T12:30:16;8.75;;;4.25;;
67867;SDS011;54672;46.096;14.470;2024-01-06T12:32:44;6.13;;;3.53;;
67867;SDS011;54672;46.096;14.470;2024-01-06T12:35:11;14.52;;;5.40;;
67867;SDS011;54672;46.096;14.470;2024-01-06T12:37:41;6.75;;;4.00;;
67867;SDS011;54672;46.096;14.470;2024-01-06T12:40:08;5.50;;;3.20;;
67867;SDS011;54672;46.096;14.470;2024-01-06T12:42:34;6.35;;;3.33;;
67867;SDS011;54672;46.096;14.470;2024-01-06T12:44:59;6.40;;;3.55;;
67867;SDS011;54672;46.096;14.470;2024-01-06T12:47:25;6.18;;;3.30;;
67867;SDS011;54672;46.096;14.470;2024-01-06T12:49:50;7.13;;;3.35;;
67867;SDS011;54672;46.096;14.470;2024-01-06T12:52:16;9.95;;;4.50;;
67867;SDS011;54672;46.096;14.470;2024-01-06T12:54:41;9.95;;;4.57;;
67867;SDS011;54672;46.096;14.470;2024-01-06T12:57:08;14.82;;;5.28;;
67867;SDS011;54672;46.096;14.470;2024-01-06T12:59:33;20.52;;;7.03;;
67867;SDS011;54672;46.096;14.470;2024-01-06T13:01:58;15.57;;;6.07;;
67867;SDS011;54672;46.096;14.470;2024-01-06T13:04:24;9.65;;;4.20;;
67867;SDS011;54672;46.096;14.470;2024-01-06T13:06:49;7.15;;;3.45;;
67867;SDS011;54672;46.096;14.470;2024-01-06T13:09:15;7.68;;;3.60;;
67867;SDS011;54672;46.096;14.470;2024-01-06T13:11:42;7.00;;;3.55;;
67867;SDS011;54672;46.096;14.470;2024-01-06T13:14:08;6.72;;;3.67;;
67867;SDS011;54672;46.096;14.470;2024-01-06T13:16:33;5.50;;;2.75;;
67867;SDS011;54672;46.096;14.470;2024-01-06T13:18:59;4.82;;;2.80;;
67867;SDS011;54672;46.096;14.470;2024-01-06T13:21:26;4.78;;;2.70;;
67867;SDS011;54672;46.096;14.470;2024-01-06T13:23:53;4.85;;;2.78;;
67867;SDS011;54672;46.096;14.470;2024-01-06T13:26:19;7.82;;;2.85;;
67867;SDS011;54672;46.096;14.470;2024-01-06T13:28:44;6.18;;;3.03;;
67867;SDS011;54672;46.096;14.470;2024-01-06T13:31:11;4.97;;;2.70;;
67867;SDS011;54672;46.096;14.470;2024-01-06T13:33:36;7.05;;;4.05;;
67867;SDS011;54672;46.096;14.470;2024-01-06T13:36:02;6.82;;;3.20;;
67867;SDS011;54672;46.096;14.470;2024-01-06T13:38:29;8.30;;;3.83;;
67867;SDS011;54672;46.096;14.470;2024-01-06T13:40:54;8.85;;;3.88;;
67867;SDS011;54672;46.096;14.470;2024-01-06T13:43:20;8.27;;;3.50;;
67867;SDS011;54672;46.096;14.470;2024-01-06T13:45:45;7.78;;;3.65;;
67867;SDS011;54672;46.096;14.470;2024-01-06T13:48:11;7.85;;;3.83;;
67867;SDS011;54672;46.096;14.470;2024-01-06T13:50:36;7.65;;;3.60;;
67867;SDS011;54672;46.096;14.470;2024-01-06T13:53:02;9.77;;;4.47;;
67867;SDS011;54672;46.096;14.470;2024-01-06T13:55:29;8.20;;;4.28;;
67867;SDS011;54672;46.096;14.470;2024-01-06T13:57:54;10.38;;;4.70;;
67867;SDS011;54672;46.096;14.470;2024-01-06T14:00:19;5.55;;;3.08;;
67867;SDS011;54672;46.096;14.470;2024-01-06T14:02:45;9.27;;;4.35;;
67867;SDS011;54672;46.096;14.470;2024-01-06T14:05:12;8.88;;;4.65;;
67867;SDS011;54672;46.096;14.470;2024-01-06T14:07:38;10.02;;;5.05;;
67867;SDS011;54672;46.096;14.470;2024-01-06T14:10:05;11.07;;;5.20;;
67867;SDS011;54672;46.096;14.470;2024-01-06T14:12:34;12.80;;;5.40;;
67867;SDS011;54672;46.096;14.470;2024-01-06T14:14:59;9.07;;;4.93;;
67867;SDS011;54672;46.096;14.470;2024-01-06T14:17:26;12.05;;;6.00;;
67867;SDS011;54672;46.096;14.470;2024-01-06T14:19:51;13.68;;;6.10;;
67867;SDS011;54672;46.096;14.470;2024-01-06T14:22:17;11.57;;;6.40;;